sensor_id;sensor_type;location;lat;lon;timestamp;P1;durP1;ratioP1;P2;durP2;ratioP2
77105;SDS011;66057;54.718;18.426;2023-12-22T00:01:31;6.88;;;1.27;;
77105;SDS011;66057;54.718;18.426;2023-12-22T00:03:58;2.92;;;1.25;;
77105;SDS011;66057;54.718;18.426;2023-12-22T00:06:24;2.00;;;0.90;;
77105;SDS011;66057;54.718;18.426;2023-12-22T00:08:50;1.15;;;0.70;;
77105;SDS011;66057;54.718;18.426;2023-12-22T00:11:16;1.75;;;0.68;;
77105;SDS011;66057;54.718;18.426;2023-12-22T00:13:42;4.63;;;1.13;;
77105;SDS011;66057;54.718;18.426;2023-12-22T00:16:07;1.50;;;1.10;;
77105;SDS011;66057;54.718;18.426;2023-12-22T00:18:33;1.45;;;0.68;;
77105;SDS011;66057;54.718;18.426;2023-12-22T00:21:01;2.65;;;1.00;;
77105;SDS011;66057;54.718;18.426;2023-12-22T00:23:27;1.55;;;0.60;;
77105;SDS011;66057;54.718;18.426;2023-12-22T00:25:52;2.22;;;0.68;;
77105;SDS011;66057;54.718;18.426;2023-12-22T00:28:19;1.27;;;0.20;;
77105;SDS011;66057;54.718;18.426;2023-12-22T00:30:46;0.75;;;0.75;;
77105;SDS011;66057;54.718;18.426;2023-12-22T00:33:13;3.20;;;1.17;;
77105;SDS011;66057;54.718;18.426;2023-12-22T00:35:39;0.90;;;0.73;;
77105;SDS011;66057;54.718;18.426;2023-12-22T00:38:05;2.42;;;0.70;;
77105;SDS011;66057;54.718;18.426;2023-12-22T00:40:32;1.63;;;0.60;;
77105;SDS011;66057;54.718;18.426;2023-12-22T00:42:58;2.80;;;1.15;;
77105;SDS011;66057;54.718;18.426;2023-12-22T00:45:25;6.50;;;1.13;;
77105;SDS011;66057;54.718;18.426;2023-12-22T00:47:52;3.75;;;1.55;;
77105;SDS011;66057;54.718;18.426;2023-12-22T00:50:19;2.13;;;1.25;;
77105;SDS011;66057;54.718;18.426;2023-12-22T00:52:46;2.90;;;1.25;;
77105;SDS011;66057;54.718;18.426;2023-12-22T00:55:11;3.00;;;0.80;;
77105;SDS011;66057;54.718;18.426;2023-12-22T00:57:41;4.13;;;1.27;;
77105;SDS011;66057;54.718;18.426;2023-12-22T01:00:08;4.78;;;2.40;;
77105;SDS011;66057;54.718;18.426;2023-12-22T01:02:38;3.10;;;1.45;;
77105;SDS011;66057;54.718;18.426;2023-12-22T01:05:05;12.63;;;1.25;;
77105;SDS011;66057;54.718;18.426;2023-12-22T01:07:31;1.65;;;0.77;;
77105;SDS011;66057;54.718;18.426;2023-12-22T01:09:56;6.07;;;1.05;;
77105;SDS011;66057;54.718;18.426;2023-12-22T01:12:29;0.10;;;0.10;;
77105;SDS011;66057;54.718;18.426;2023-12-22T01:14:58;0.15;;;0.15;;
77105;SDS011;66057;54.718;18.426;2023-12-22T01:17:25;0.20;;;0.20;;
77105;SDS011;66057;54.718;18.426;2023-12-22T01:19:50;0.20;;;0.20;;
77105;SDS011;66057;54.718;18.426;2023-12-22T01:22:17;0.10;;;0.10;;
77105;SDS011;66057;54.718;18.426;2023-12-22T01:24:43;0.13;;;0.13;;
77105;SDS011;66057;54.718;18.426;2023-12-22T01:27:11;0.20;;;0.20;;
77105;SDS011;66057;54.718;18.426;2023-12-22T01:29:36;1.05;;;0.60;;
77105;SDS011;66057;54.718;18.426;2023-12-22T01:32:02;0.20;;;0.20;;
77105;SDS011;66057;54.718;18.426;2023-12-22T01:34:28;0.20;;;0.20;;
77105;SDS011;66057;54.718;18.426;2023-12-22T01:36:56;0.10;;;0.10;;
77105;SDS011;66057;54.718;18.426;2023-12-22T01:39:21;0.30;;;0.30;;
77105;SDS011;66057;54.718;18.426;2023-12-22T01:41:47;2.53;;;2.35;;
77105;SDS011;66057;54.718;18.426;2023-12-22T01:44:13;0.17;;;0.17;;
77105;SDS011;66057;54.718;18.426;2023-12-22T01:46:39;1.13;;;0.85;;
77105;SDS011;66057;54.718;18.426;2023-12-22T01:51:33;0.20;;;0.20;;
77105;SDS011;66057;54.718;18.426;2023-12-22T01:53:59;0.20;;;0.20;;
77105;SDS011;66057;54.718;18.426;2023-12-22T01:56:27;0.20;;;0.20;;
77105;SDS011;66057;54.718;18.426;2023-12-22T01:58:55;0.20;;;0.20;;
77105;SDS011;66057;54.718;18.426;2023-12-22T02:01:22;0.15;;;0.15;;
77105;SDS011;66057;54.718;18.426;2023-12-22T02:03:49;0.10;;;0.10;;
77105;SDS011;66057;54.718;18.426;2023-12-22T02:06:19;0.00;;;0.00;;
77105;SDS011;66057;54.718;18.426;2023-12-22T02:08:46;0.20;;;0.20;;
77105;SDS011;66057;54.718;18.426;2023-12-22T02:11:13;0.22;;;0.22;;
77105;SDS011;66057;54.718;18.426;2023-12-22T02:13:38;0.20;;;0.20;;
77105;SDS011;66057;54.718;18.426;2023-12-22T02:16:10;0.10;;;0.10;;
77105;SDS011;66057;54.718;18.426;2023-12-22T02:18:38;0.20;;;0.20;;
77105;SDS011;66057;54.718;18.426;2023-12-22T02:21:05;0.20;;;0.20;;
77105;SDS011;66057;54.718;18.426;2023-12-22T02:23:30;0.10;;;0.10;;
77105;SDS011;66057;54.718;18.426;2023-12-22T02:25:57;0.20;;;0.20;;
77105;SDS011;66057;54.718;18.426;2023-12-22T02:28:27;0.20;;;0.20;;
77105;SDS011;66057;54.718;18.426;2023-12-22T02:33:27;0.20;;;0.20;;
77105;SDS011;66057;54.718;18.426;2023-12-22T02:35:54;0.20;;;0.20;;
77105;SDS011;66057;54.718;18.426;2023-12-22T02:38:23;0.55;;;0.55;;
77105;SDS011;66057;54.718;18.426;2023-12-22T02:40:50;0.73;;;0.50;;
77105;SDS011;66057;54.718;18.426;2023-12-22T02:43:16;0.20;;;0.20;;
77105;SDS011;66057;54.718;18.426;2023-12-22T02:45:51;1.73;;;0.70;;
77105;SDS011;66057;54.718;18.426;2023-12-22T02:50:47;0.68;;;0.52;;
77105;SDS011;66057;54.718;18.426;2023-12-22T02:53:13;0.55;;;0.50;;
77105;SDS011;66057;54.718;18.426;2023-12-22T02:55:40;3.58;;;0.73;;
77105;SDS011;66057;54.718;18.426;2023-12-22T02:58:06;0.00;;;0.00;;
77105;SDS011;66057;54.718;18.426;2023-12-22T03:00:32;0.20;;;0.20;;
77105;SDS011;66057;54.718;18.426;2023-12-22T03:02:57;0.20;;;0.20;;
77105;SDS011;66057;54.718;18.426;2023-12-22T03:05:24;3.30;;;1.38;;
77105;SDS011;66057;54.718;18.426;2023-12-22T03:07:57;0.20;;;0.20;;
77105;SDS011;66057;54.718;18.426;2023-12-22T03:10:25;0.22;;;0.22;;
77105;SDS011;66057;54.718;18.426;2023-12-22T03:12:52;0.10;;;0.10;;
77105;SDS011;66057;54.718;18.426;2023-12-22T03:15:24;0.10;;;0.10;;
77105;SDS011;66057;54.718;18.426;2023-12-22T03:17:50;0.20;;;0.20;;
77105;SDS011;66057;54.718;18.426;2023-12-22T03:20:17;0.10;;;0.10;;
77105;SDS011;66057;54.718;18.426;2023-12-22T03:22:44;0.17;;;0.17;;
77105;SDS011;66057;54.718;18.426;2023-12-22T03:25:10;0.20;;;0.20;;
77105;SDS011;66057;54.718;18.426;2023-12-22T03:27:35;0.30;;;0.30;;
77105;SDS011;66057;54.718;18.426;2023-12-22T03:30:02;0.15;;;0.15;;
77105;SDS011;66057;54.718;18.426;2023-12-22T03:32:28;0.40;;;0.40;;
77105;SDS011;66057;54.718;18.426;2023-12-22T03:34:54;0.15;;;0.15;;
77105;SDS011;66057;54.718;18.426;2023-12-22T03:37:20;0.20;;;0.20;;
77105;SDS011;66057;54.718;18.426;2023-12-22T03:39:45;0.00;;;0.00;;
77105;SDS011;66057;54.718;18.426;2023-12-22T03:42:11;0.30;;;0.30;;
77105;SDS011;66057;54.718;18.426;2023-12-22T03:44:37;0.00;;;0.00;;
77105;SDS011;66057;54.718;18.426;2023-12-22T03:47:03;0.20;;;0.20;;
77105;SDS011;66057;54.718;18.426;2023-12-22T03:49:29;0.20;;;0.20;;
77105;SDS011;66057;54.718;18.426;2023-12-22T03:51:55;0.20;;;0.20;;
77105;SDS011;66057;54.718;18.426;2023-12-22T03:54:20;0.20;;;0.20;;
77105;SDS011;66057;54.718;18.426;2023-12-22T03:56:47;0.20;;;0.20;;
77105;SDS011;66057;54.718;18.426;2023-12-22T03:59:13;0.10;;;0.10;;
77105;SDS011;66057;54.718;18.426;2023-12-22T04:01:39;0.20;;;0.20;;
77105;SDS011;66057;54.718;18.426;2023-12-22T04:04:05;0.20;;;0.20;;
77105;SDS011;66057;54.718;18.426;2023-12-22T04:06:32;0.25;;;0.25;;
77105;SDS011;66057;54.718;18.426;2023-12-22T04:09:02;0.43;;;0.43;;
77105;SDS011;66057;54.718;18.426;2023-12-22T04:11:28;0.13;;;0.13;;
77105;SDS011;66057;54.718;18.426;2023-12-22T04:13:55;0.10;;;0.10;;
77105;SDS011;66057;54.718;18.426;2023-12-22T04:16:20;0.10;;;0.10;;
77105;SDS011;66057;54.718;18.426;2023-12-22T04:18:47;0.00;;;0.00;;
77105;SDS011;66057;54.718;18.426;2023-12-22T04:21:12;0.17;;;0.17;;
77105;SDS011;66057;54.718;18.426;2023-12-22T04:23:38;0.10;;;0.10;;
77105;SDS011;66057;54.718;18.426;2023-12-22T04:26:03;0.28;;;0.28;;
77105;SDS011;66057;54.718;18.426;2023-12-22T04:28:29;0.10;;;0.10;;
77105;SDS011;66057;54.718;18.426;2023-12-22T04:30:56;0.13;;;0.13;;
77105;SDS011;66057;54.718;18.426;2023-12-22T04:33:23;0.20;;;0.20;;
77105;SDS011;66057;54.718;18.426;2023-12-22T04:35:48;0.30;;;0.30;;
77105;SDS011;66057;54.718;18.426;2023-12-22T04:38:14;0.20;;;0.20;;
77105;SDS011;66057;54.718;18.426;2023-12-22T04:40:39;0.00;;;0.00;;
77105;SDS011;66057;54.718;18.426;2023-12-22T04:43:05;0.10;;;0.10;;
77105;SDS011;66057;54.718;18.426;2023-12-22T04:45:31;0.20;;;0.20;;
77105;SDS011;66057;54.718;18.426;2023-12-22T04:47:56;0.13;;;0.13;;
77105;SDS011;66057;54.718;18.426;2023-12-22T04:50:22;0.28;;;0.28;;
77105;SDS011;66057;54.718;18.426;2023-12-22T04:52:48;0.20;;;0.20;;
77105;SDS011;66057;54.718;18.426;2023-12-22T04:55:15;0.60;;;0.60;;
77105;SDS011;66057;54.718;18.426;2023-12-22T04:57:44;0.00;;;0.00;;
77105;SDS011;66057;54.718;18.426;2023-12-22T05:00:13;0.17;;;0.17;;
77105;SDS011;66057;54.718;18.426;2023-12-22T05:02:39;0.20;;;0.20;;
77105;SDS011;66057;54.718;18.426;2023-12-22T05:05:05;0.10;;;0.10;;
77105;SDS011;66057;54.718;18.426;2023-12-22T05:09:57;4.65;;;1.67;;
77105;SDS011;66057;54.718;18.426;2023-12-22T05:12:26;0.22;;;0.22;;
77105;SDS011;66057;54.718;18.426;2023-12-22T05:14:51;3.13;;;1.27;;
77105;SDS011;66057;54.718;18.426;2023-12-22T05:17:20;5.45;;;1.60;;
77105;SDS011;66057;54.718;18.426;2023-12-22T05:19:46;7.13;;;1.23;;
77105;SDS011;66057;54.718;18.426;2023-12-22T05:22:15;0.10;;;0.10;;
77105;SDS011;66057;54.718;18.426;2023-12-22T05:24:42;7.35;;;2.25;;
77105;SDS011;66057;54.718;18.426;2023-12-22T05:27:08;4.20;;;1.48;;
77105;SDS011;66057;54.718;18.426;2023-12-22T05:29:34;4.90;;;1.20;;
77105;SDS011;66057;54.718;18.426;2023-12-22T05:32:01;8.80;;;2.85;;
77105;SDS011;66057;54.718;18.426;2023-12-22T05:34:29;6.30;;;2.38;;
77105;SDS011;66057;54.718;18.426;2023-12-22T05:36:54;0.32;;;0.32;;
77105;SDS011;66057;54.718;18.426;2023-12-22T05:41:48;5.20;;;2.22;;
77105;SDS011;66057;54.718;18.426;2023-12-22T05:44:17;8.18;;;2.55;;
77105;SDS011;66057;54.718;18.426;2023-12-22T05:46:45;8.30;;;1.55;;
77105;SDS011;66057;54.718;18.426;2023-12-22T05:49:12;5.50;;;1.95;;
77105;SDS011;66057;54.718;18.426;2023-12-22T05:51:42;5.10;;;1.60;;
77105;SDS011;66057;54.718;18.426;2023-12-22T05:54:08;3.45;;;1.67;;
77105;SDS011;66057;54.718;18.426;2023-12-22T05:56:35;10.18;;;3.05;;
77105;SDS011;66057;54.718;18.426;2023-12-22T05:59:01;13.35;;;2.95;;
77105;SDS011;66057;54.718;18.426;2023-12-22T06:01:30;13.07;;;3.17;;
77105;SDS011;66057;54.718;18.426;2023-12-22T06:03:56;7.32;;;3.13;;
77105;SDS011;66057;54.718;18.426;2023-12-22T06:06:22;9.45;;;3.30;;
77105;SDS011;66057;54.718;18.426;2023-12-22T06:08:49;12.90;;;3.08;;
77105;SDS011;66057;54.718;18.426;2023-12-22T06:11:17;6.60;;;2.65;;
77105;SDS011;66057;54.718;18.426;2023-12-22T06:13:44;0.80;;;0.80;;
77105;SDS011;66057;54.718;18.426;2023-12-22T06:16:11;12.05;;;3.63;;
77105;SDS011;66057;54.718;18.426;2023-12-22T06:18:37;8.30;;;3.47;;
77105;SDS011;66057;54.718;18.426;2023-12-22T06:21:03;13.05;;;3.70;;
77105;SDS011;66057;54.718;18.426;2023-12-22T06:23:29;4.50;;;2.00;;
77105;SDS011;66057;54.718;18.426;2023-12-22T06:25:57;0.10;;;0.10;;
77105;SDS011;66057;54.718;18.426;2023-12-22T06:28:23;0.40;;;0.40;;
77105;SDS011;66057;54.718;18.426;2023-12-22T06:31:04;11.05;;;3.28;;
77105;SDS011;66057;54.718;18.426;2023-12-22T06:33:31;6.80;;;2.63;;
77105;SDS011;66057;54.718;18.426;2023-12-22T06:36:02;9.45;;;2.05;;
77105;SDS011;66057;54.718;18.426;2023-12-22T06:38:30;6.00;;;2.33;;
77105;SDS011;66057;54.718;18.426;2023-12-22T06:40:59;12.27;;;3.17;;
77105;SDS011;66057;54.718;18.426;2023-12-22T06:43:25;8.95;;;3.47;;
77105;SDS011;66057;54.718;18.426;2023-12-22T06:45:51;13.52;;;3.63;;
77105;SDS011;66057;54.718;18.426;2023-12-22T06:48:24;7.70;;;2.90;;
77105;SDS011;66057;54.718;18.426;2023-12-22T06:50:52;15.40;;;3.28;;
77105;SDS011;66057;54.718;18.426;2023-12-22T06:53:26;7.10;;;3.00;;
77105;SDS011;66057;54.718;18.426;2023-12-22T06:55:52;0.20;;;0.20;;
77105;SDS011;66057;54.718;18.426;2023-12-22T06:58:23;6.05;;;1.58;;
77105;SDS011;66057;54.718;18.426;2023-12-22T07:00:52;2.60;;;1.42;;
77105;SDS011;66057;54.718;18.426;2023-12-22T07:05:44;9.82;;;2.63;;
77105;SDS011;66057;54.718;18.426;2023-12-22T07:08:11;4.78;;;2.33;;
77105;SDS011;66057;54.718;18.426;2023-12-22T07:10:43;6.13;;;1.95;;
77105;SDS011;66057;54.718;18.426;2023-12-22T07:13:13;8.02;;;2.65;;
77105;SDS011;66057;54.718;18.426;2023-12-22T07:15:39;8.55;;;3.05;;
77105;SDS011;66057;54.718;18.426;2023-12-22T07:18:05;5.53;;;1.92;;
77105;SDS011;66057;54.718;18.426;2023-12-22T07:20:32;9.07;;;2.25;;
77105;SDS011;66057;54.718;18.426;2023-12-22T07:22:59;0.17;;;0.17;;
77105;SDS011;66057;54.718;18.426;2023-12-22T07:25:24;5.25;;;1.05;;
77105;SDS011;66057;54.718;18.426;2023-12-22T07:27:50;1.80;;;0.98;;
77105;SDS011;66057;54.718;18.426;2023-12-22T07:30:18;5.72;;;2.25;;
77105;SDS011;66057;54.718;18.426;2023-12-22T07:35:10;6.00;;;2.72;;
77105;SDS011;66057;54.718;18.426;2023-12-22T07:37:37;6.65;;;3.58;;
77105;SDS011;66057;54.718;18.426;2023-12-22T07:40:02;7.65;;;3.60;;
77105;SDS011;66057;54.718;18.426;2023-12-22T07:42:31;9.23;;;3.38;;
77105;SDS011;66057;54.718;18.426;2023-12-22T07:45:12;8.00;;;3.63;;
77105;SDS011;66057;54.718;18.426;2023-12-22T07:47:39;9.75;;;2.55;;
77105;SDS011;66057;54.718;18.426;2023-12-22T07:50:04;8.48;;;3.92;;
77105;SDS011;66057;54.718;18.426;2023-12-22T07:52:34;6.13;;;4.43;;
77105;SDS011;66057;54.718;18.426;2023-12-22T07:55:07;10.88;;;3.08;;
77105;SDS011;66057;54.718;18.426;2023-12-22T07:57:34;6.88;;;3.00;;
77105;SDS011;66057;54.718;18.426;2023-12-22T08:00:00;6.43;;;2.70;;
77105;SDS011;66057;54.718;18.426;2023-12-22T08:02:26;10.35;;;4.32;;
77105;SDS011;66057;54.718;18.426;2023-12-22T08:04:52;12.18;;;4.95;;
77105;SDS011;66057;54.718;18.426;2023-12-22T08:07:23;14.93;;;5.55;;
77105;SDS011;66057;54.718;18.426;2023-12-22T08:09:48;0.10;;;0.10;;
77105;SDS011;66057;54.718;18.426;2023-12-22T08:12:29;0.30;;;0.30;;
77105;SDS011;66057;54.718;18.426;2023-12-22T08:15:01;0.10;;;0.10;;
77105;SDS011;66057;54.718;18.426;2023-12-22T08:17:30;0.30;;;0.30;;
77105;SDS011;66057;54.718;18.426;2023-12-22T08:19:59;0.00;;;0.00;;
77105;SDS011;66057;54.718;18.426;2023-12-22T08:22:24;0.32;;;0.32;;
77105;SDS011;66057;54.718;18.426;2023-12-22T08:24:52;0.10;;;0.10;;
77105;SDS011;66057;54.718;18.426;2023-12-22T08:27:18;0.10;;;0.10;;
77105;SDS011;66057;54.718;18.426;2023-12-22T08:29:46;10.45;;;5.18;;
77105;SDS011;66057;54.718;18.426;2023-12-22T08:32:13;9.82;;;4.07;;
77105;SDS011;66057;54.718;18.426;2023-12-22T08:34:44;5.05;;;3.25;;
77105;SDS011;66057;54.718;18.426;2023-12-22T08:37:13;0.13;;;0.13;;
77105;SDS011;66057;54.718;18.426;2023-12-22T08:39:39;0.20;;;0.20;;
77105;SDS011;66057;54.718;18.426;2023-12-22T08:42:05;3.95;;;1.77;;
77105;SDS011;66057;54.718;18.426;2023-12-22T08:44:32;2.45;;;1.60;;
77105;SDS011;66057;54.718;18.426;2023-12-22T08:46:57;5.28;;;1.67;;
77105;SDS011;66057;54.718;18.426;2023-12-22T08:49:23;9.02;;;4.10;;
77105;SDS011;66057;54.718;18.426;2023-12-22T08:51:52;6.85;;;3.45;;
77105;SDS011;66057;54.718;18.426;2023-12-22T08:54:40;5.30;;;2.33;;
77105;SDS011;66057;54.718;18.426;2023-12-22T08:57:08;4.57;;;2.30;;
77105;SDS011;66057;54.718;18.426;2023-12-22T08:59:52;5.63;;;2.05;;
77105;SDS011;66057;54.718;18.426;2023-12-22T09:02:34;4.82;;;3.13;;
77105;SDS011;66057;54.718;18.426;2023-12-22T09:05:05;8.15;;;2.10;;
77105;SDS011;66057;54.718;18.426;2023-12-22T09:07:33;5.80;;;2.45;;
77105;SDS011;66057;54.718;18.426;2023-12-22T09:10:25;4.15;;;2.22;;
77105;SDS011;66057;54.718;18.426;2023-12-22T09:12:53;2.88;;;1.20;;
77105;SDS011;66057;54.718;18.426;2023-12-22T09:15:22;0.10;;;0.10;;
77105;SDS011;66057;54.718;18.426;2023-12-22T09:17:50;0.10;;;0.10;;
77105;SDS011;66057;54.718;18.426;2023-12-22T09:20:21;0.10;;;0.10;;
77105;SDS011;66057;54.718;18.426;2023-12-22T09:23:27;0.20;;;0.20;;
77105;SDS011;66057;54.718;18.426;2023-12-22T09:25:56;0.10;;;0.10;;
77105;SDS011;66057;54.718;18.426;2023-12-22T09:28:22;0.22;;;0.22;;
77105;SDS011;66057;54.718;18.426;2023-12-22T09:30:48;0.20;;;0.20;;
77105;SDS011;66057;54.718;18.426;2023-12-22T09:33:16;0.20;;;0.20;;
77105;SDS011;66057;54.718;18.426;2023-12-22T09:35:48;0.13;;;0.13;;
77105;SDS011;66057;54.718;18.426;2023-12-22T09:38:15;0.10;;;0.10;;
77105;SDS011;66057;54.718;18.426;2023-12-22T09:40:40;0.10;;;0.10;;
77105;SDS011;66057;54.718;18.426;2023-12-22T09:43:21;0.00;;;0.00;;
77105;SDS011;66057;54.718;18.426;2023-12-22T09:45:52;0.10;;;0.10;;
77105;SDS011;66057;54.718;18.426;2023-12-22T09:48:25;0.20;;;0.20;;
77105;SDS011;66057;54.718;18.426;2023-12-22T09:50:55;0.17;;;0.17;;
77105;SDS011;66057;54.718;18.426;2023-12-22T09:53:22;0.22;;;0.22;;
77105;SDS011;66057;54.718;18.426;2023-12-22T09:55:49;0.20;;;0.20;;
77105;SDS011;66057;54.718;18.426;2023-12-22T09:58:30;0.10;;;0.10;;
77105;SDS011;66057;54.718;18.426;2023-12-22T10:01:06;0.20;;;0.20;;
77105;SDS011;66057;54.718;18.426;2023-12-22T10:03:37;0.20;;;0.20;;
77105;SDS011;66057;54.718;18.426;2023-12-22T10:06:05;0.10;;;0.10;;
77105;SDS011;66057;54.718;18.426;2023-12-22T10:08:32;0.10;;;0.10;;
77105;SDS011;66057;54.718;18.426;2023-12-22T10:11:14;0.13;;;0.13;;
77105;SDS011;66057;54.718;18.426;2023-12-22T10:13:56;0.10;;;0.10;;
77105;SDS011;66057;54.718;18.426;2023-12-22T10:16:38;0.00;;;0.00;;
77105;SDS011;66057;54.718;18.426;2023-12-22T10:19:05;7.60;;;7.32;;
77105;SDS011;66057;54.718;18.426;2023-12-22T10:21:31;0.13;;;0.13;;
77105;SDS011;66057;54.718;18.426;2023-12-22T10:23:57;0.20;;;0.20;;
77105;SDS011;66057;54.718;18.426;2023-12-22T10:26:23;0.13;;;0.13;;
77105;SDS011;66057;54.718;18.426;2023-12-22T10:28:48;0.10;;;0.10;;
77105;SDS011;66057;54.718;18.426;2023-12-22T10:31:14;0.20;;;0.20;;
77105;SDS011;66057;54.718;18.426;2023-12-22T10:33:40;0.25;;;0.25;;
77105;SDS011;66057;54.718;18.426;2023-12-22T10:36:07;0.10;;;0.10;;
77105;SDS011;66057;54.718;18.426;2023-12-22T10:38:33;0.10;;;0.10;;
77105;SDS011;66057;54.718;18.426;2023-12-22T10:41:02;0.10;;;0.10;;
77105;SDS011;66057;54.718;18.426;2023-12-22T10:43:28;0.20;;;0.20;;
77105;SDS011;66057;54.718;18.426;2023-12-22T10:45:53;0.20;;;0.20;;
77105;SDS011;66057;54.718;18.426;2023-12-22T10:48:22;0.28;;;0.28;;
77105;SDS011;66057;54.718;18.426;2023-12-22T10:50:48;0.35;;;0.35;;
77105;SDS011;66057;54.718;18.426;2023-12-22T10:53:16;0.20;;;0.20;;
77105;SDS011;66057;54.718;18.426;2023-12-22T10:55:58;0.00;;;0.00;;
77105;SDS011;66057;54.718;18.426;2023-12-22T10:58:42;0.30;;;0.30;;
77105;SDS011;66057;54.718;18.426;2023-12-22T11:01:12;5.60;;;5.35;;
77105;SDS011;66057;54.718;18.426;2023-12-22T11:06:06;0.75;;;0.75;;
77105;SDS011;66057;54.718;18.426;2023-12-22T11:08:36;0.20;;;0.20;;
77105;SDS011;66057;54.718;18.426;2023-12-22T11:11:33;0.20;;;0.20;;
77105;SDS011;66057;54.718;18.426;2023-12-22T11:14:00;0.10;;;0.10;;
77105;SDS011;66057;54.718;18.426;2023-12-22T11:16:30;0.20;;;0.20;;
77105;SDS011;66057;54.718;18.426;2023-12-22T11:18:57;0.10;;;0.10;;
77105;SDS011;66057;54.718;18.426;2023-12-22T11:21:24;0.20;;;0.20;;
77105;SDS011;66057;54.718;18.426;2023-12-22T11:23:56;0.20;;;0.20;;
77105;SDS011;66057;54.718;18.426;2023-12-22T11:26:28;0.10;;;0.10;;
77105;SDS011;66057;54.718;18.426;2023-12-22T11:28:57;0.10;;;0.10;;
77105;SDS011;66057;54.718;18.426;2023-12-22T11:31:24;0.30;;;0.30;;
77105;SDS011;66057;54.718;18.426;2023-12-22T11:33:51;3.90;;;0.88;;
77105;SDS011;66057;54.718;18.426;2023-12-22T11:36:17;0.20;;;0.20;;
77105;SDS011;66057;54.718;18.426;2023-12-22T11:38:44;0.17;;;0.17;;
77105;SDS011;66057;54.718;18.426;2023-12-22T11:41:29;0.20;;;0.20;;
77105;SDS011;66057;54.718;18.426;2023-12-22T11:43:56;0.10;;;0.10;;
77105;SDS011;66057;54.718;18.426;2023-12-22T11:46:23;0.20;;;0.20;;
77105;SDS011;66057;54.718;18.426;2023-12-22T11:48:50;0.25;;;0.25;;
77105;SDS011;66057;54.718;18.426;2023-12-22T11:51:16;0.20;;;0.20;;
77105;SDS011;66057;54.718;18.426;2023-12-22T11:53:42;0.30;;;0.30;;
77105;SDS011;66057;54.718;18.426;2023-12-22T11:56:09;0.20;;;0.20;;
77105;SDS011;66057;54.718;18.426;2023-12-22T12:01:09;0.10;;;0.10;;
77105;SDS011;66057;54.718;18.426;2023-12-22T12:03:36;0.10;;;0.10;;
77105;SDS011;66057;54.718;18.426;2023-12-22T12:06:14;0.20;;;0.20;;
77105;SDS011;66057;54.718;18.426;2023-12-22T12:08:41;0.22;;;0.22;;
77105;SDS011;66057;54.718;18.426;2023-12-22T12:11:09;0.20;;;0.20;;
77105;SDS011;66057;54.718;18.426;2023-12-22T12:13:36;0.20;;;0.20;;
77105;SDS011;66057;54.718;18.426;2023-12-22T12:16:04;0.28;;;0.28;;
77105;SDS011;66057;54.718;18.426;2023-12-22T12:18:32;0.20;;;0.20;;
77105;SDS011;66057;54.718;18.426;2023-12-22T12:21:00;0.10;;;0.10;;
77105;SDS011;66057;54.718;18.426;2023-12-22T12:23:28;1.65;;;1.65;;
77105;SDS011;66057;54.718;18.426;2023-12-22T12:25:54;0.20;;;0.20;;
77105;SDS011;66057;54.718;18.426;2023-12-22T12:28:28;0.10;;;0.10;;
77105;SDS011;66057;54.718;18.426;2023-12-22T12:31:00;0.25;;;0.25;;
77105;SDS011;66057;54.718;18.426;2023-12-22T12:33:26;0.10;;;0.10;;
77105;SDS011;66057;54.718;18.426;2023-12-22T12:35:55;0.20;;;0.20;;
77105;SDS011;66057;54.718;18.426;2023-12-22T12:38:22;0.10;;;0.10;;
77105;SDS011;66057;54.718;18.426;2023-12-22T12:40:50;0.20;;;0.20;;
77105;SDS011;66057;54.718;18.426;2023-12-22T12:43:17;0.15;;;0.15;;
77105;SDS011;66057;54.718;18.426;2023-12-22T12:45:42;0.10;;;0.10;;
77105;SDS011;66057;54.718;18.426;2023-12-22T12:48:08;3.00;;;2.80;;
77105;SDS011;66057;54.718;18.426;2023-12-22T12:50:34;0.00;;;0.00;;
77105;SDS011;66057;54.718;18.426;2023-12-22T12:53:00;0.10;;;0.10;;
77105;SDS011;66057;54.718;18.426;2023-12-22T12:55:26;0.13;;;0.13;;
77105;SDS011;66057;54.718;18.426;2023-12-22T12:57:52;0.30;;;0.30;;
77105;SDS011;66057;54.718;18.426;2023-12-22T13:00:27;0.15;;;0.15;;
77105;SDS011;66057;54.718;18.426;2023-12-22T13:02:54;0.20;;;0.20;;
77105;SDS011;66057;54.718;18.426;2023-12-22T13:05:24;0.20;;;0.20;;
77105;SDS011;66057;54.718;18.426;2023-12-22T13:07:50;0.10;;;0.10;;
77105;SDS011;66057;54.718;18.426;2023-12-22T13:10:19;0.00;;;0.00;;
77105;SDS011;66057;54.718;18.426;2023-12-22T13:12:45;0.52;;;0.50;;
77105;SDS011;66057;54.718;18.426;2023-12-22T13:15:10;0.10;;;0.10;;
77105;SDS011;66057;54.718;18.426;2023-12-22T13:17:36;0.22;;;0.22;;
77105;SDS011;66057;54.718;18.426;2023-12-22T13:20:01;0.20;;;0.20;;
77105;SDS011;66057;54.718;18.426;2023-12-22T13:22:28;0.17;;;0.17;;
77105;SDS011;66057;54.718;18.426;2023-12-22T13:24:54;0.10;;;0.10;;
77105;SDS011;66057;54.718;18.426;2023-12-22T13:27:20;1.25;;;1.20;;
77105;SDS011;66057;54.718;18.426;2023-12-22T13:29:45;0.10;;;0.10;;
77105;SDS011;66057;54.718;18.426;2023-12-22T13:32:16;0.22;;;0.22;;
77105;SDS011;66057;54.718;18.426;2023-12-22T13:34:49;4.15;;;1.27;;
77105;SDS011;66057;54.718;18.426;2023-12-22T13:37:15;0.13;;;0.13;;
77105;SDS011;66057;54.718;18.426;2023-12-22T13:39:40;0.10;;;0.10;;
77105;SDS011;66057;54.718;18.426;2023-12-22T13:42:13;0.17;;;0.17;;
77105;SDS011;66057;54.718;18.426;2023-12-22T13:44:42;0.10;;;0.10;;
77105;SDS011;66057;54.718;18.426;2023-12-22T13:47:08;0.10;;;0.10;;
77105;SDS011;66057;54.718;18.426;2023-12-22T13:49:33;0.50;;;0.50;;
77105;SDS011;66057;54.718;18.426;2023-12-22T13:51:59;0.28;;;0.28;;
77105;SDS011;66057;54.718;18.426;2023-12-22T13:54:31;0.10;;;0.10;;
77105;SDS011;66057;54.718;18.426;2023-12-22T13:56:57;0.28;;;0.28;;
77105;SDS011;66057;54.718;18.426;2023-12-22T13:59:32;0.20;;;0.20;;
77105;SDS011;66057;54.718;18.426;2023-12-22T14:01:58;0.10;;;0.10;;
77105;SDS011;66057;54.718;18.426;2023-12-22T14:04:24;0.00;;;0.00;;
77105;SDS011;66057;54.718;18.426;2023-12-22T14:06:50;0.30;;;0.30;;
77105;SDS011;66057;54.718;18.426;2023-12-22T14:09:16;0.10;;;0.10;;
77105;SDS011;66057;54.718;18.426;2023-12-22T14:11:44;0.20;;;0.20;;
77105;SDS011;66057;54.718;18.426;2023-12-22T14:14:10;0.10;;;0.10;;
77105;SDS011;66057;54.718;18.426;2023-12-22T14:19:03;0.17;;;0.17;;
77105;SDS011;66057;54.718;18.426;2023-12-22T14:21:28;5.60;;;2.28;;
77105;SDS011;66057;54.718;18.426;2023-12-22T14:23:54;0.20;;;0.20;;
77105;SDS011;66057;54.718;18.426;2023-12-22T14:26:19;0.22;;;0.20;;
77105;SDS011;66057;54.718;18.426;2023-12-22T14:28:45;0.10;;;0.10;;
77105;SDS011;66057;54.718;18.426;2023-12-22T14:31:16;1.20;;;0.90;;
77105;SDS011;66057;54.718;18.426;2023-12-22T14:33:42;3.42;;;1.90;;
77105;SDS011;66057;54.718;18.426;2023-12-22T14:36:07;5.18;;;1.92;;
77105;SDS011;66057;54.718;18.426;2023-12-22T14:38:33;0.13;;;0.13;;
77105;SDS011;66057;54.718;18.426;2023-12-22T14:40:58;0.20;;;0.20;;
77105;SDS011;66057;54.718;18.426;2023-12-22T14:43:24;9.15;;;2.83;;
77105;SDS011;66057;54.718;18.426;2023-12-22T14:45:50;6.88;;;2.70;;
77105;SDS011;66057;54.718;18.426;2023-12-22T14:48:16;6.63;;;3.13;;
77105;SDS011;66057;54.718;18.426;2023-12-22T14:50:42;0.57;;;0.57;;
77105;SDS011;66057;54.718;18.426;2023-12-22T14:53:07;0.20;;;0.20;;
77105;SDS011;66057;54.718;18.426;2023-12-22T14:55:33;0.20;;;0.20;;
77105;SDS011;66057;54.718;18.426;2023-12-22T14:57:58;3.17;;;2.33;;
77105;SDS011;66057;54.718;18.426;2023-12-22T15:00:24;0.20;;;0.20;;
77105;SDS011;66057;54.718;18.426;2023-12-22T15:02:50;0.15;;;0.15;;